Time;durP1;ratioP1;P1;durP2;ratioP2;P2;SDS_P1;SDS_P2;PMS_P1;PMS_P2;Temp;Humidity;BMP_temperature;BMP_pressure;BME280_temperature;BME280_humidity;BME280_pressure;Samples;Min_cycle;Max_cycle;Signal;HPM_P1;HPM_P2
2021/04/25 00:02:08;;;;;;;10.68;4.30;;;6.20;69.40;;;;;;5042442;28;20068;-41
2021/04/25 00:04:36;;;;;;;12.32;4.25;;;6.20;69.10;;;;;;5031026;28;20046;-43
2021/04/25 00:07:04;;;;;;;10.35;4.07;;;6.30;69.00;;;;;;5030793;28;20676;-41
2021/04/25 00:09:30;;;;;;;6.75;3.55;;;6.30;69.20;;;;;;5038333;28;20052;-43
2021/04/25 00:11:56;;;;;;;7.88;4.07;;;6.30;69.40;;;;;;5047447;28;20080;-41
2021/04/25 00:14:22;;;;;;;8.60;4.47;;;6.30;69.20;;;;;;5037043;28;20413;-41
2021/04/25 00:16:51;;;;;;;9.60;4.22;;;6.30;69.40;;;;;;5037160;28;20119;-43
2021/04/25 00:19:17;;;;;;;9.68;4.75;;;6.40;69.00;;;;;;5042663;28;20045;-41
2021/04/25 00:21:44;;;;;;;10.70;4.40;;;6.40;68.80;;;;;;5042370;28;20083;-41
2021/04/25 00:24:11;;;;;;;9.48;4.20;;;6.40;68.90;;;;;;5044311;28;20045;-40
2021/04/25 00:26:37;;;;;;;7.30;4.20;;;6.30;68.80;;;;;;5039491;28;20126;-40
2021/04/25 00:29:04;;;;;;;7.70;4.20;;;6.40;68.60;;;;;;5043859;28;20545;-41
2021/04/25 00:31:33;;;;;;;7.78;4.70;;;6.40;68.30;;;;;;5044444;28;20048;-41
2021/04/25 00:33:59;;;;;;;7.45;4.60;;;6.40;68.70;;;;;;5041875;28;20045;-41
2021/04/25 00:36:26;;;;;;;10.35;3.88;;;6.50;68.30;;;;;;5029196;28;20490;-41
2021/04/25 00:39:04;;;;;;;9.18;4.57;;;6.40;68.30;;;;;;5029356;28;20156;-41
2021/04/25 00:41:30;;;;;;;10.02;4.32;;;6.40;68.20;;;;;;5047206;28;20049;-41
2021/04/25 00:44:11;;;;;;;11.15;3.75;;;6.40;68.50;;;;;;5035947;28;20733;-40
2021/04/25 00:46:39;;;;;;;10.98;4.00;;;6.40;68.40;;;;;;5040504;28;20504;-41
2021/04/25 00:49:06;;;;;;;9.88;3.85;;;6.40;69.50;;;;;;5046272;28;20056;-41
2021/04/25 00:51:40;;;;;;;10.35;4.30;;;6.50;68.80;;;;;;5038176;28;20149;-42
2021/04/25 00:54:07;;;;;;;10.82;4.10;;;6.50;69.10;;;;;;5045607;28;20124;-42
2021/04/25 00:56:34;;;;;;;8.30;3.58;;;6.50;69.00;;;;;;5049251;28;20052;-41
2021/04/25 00:59:01;;;;;;;10.93;3.90;;;6.40;69.00;;;;;;5045468;28;20045;-42
2021/04/25 01:01:29;;;;;;;10.48;3.88;;;6.40;69.00;;;;;;5046996;28;20049;-40
2021/04/25 01:03:56;;;;;;;10.18;3.92;;;6.40;68.80;;;;;;5038603;28;20045;-42
2021/04/25 01:06:23;;;;;;;7.43;2.67;;;6.40;68.50;;;;;;5029332;28;20136;-41
2021/04/25 01:08:49;;;;;;;12.88;2.88;;;6.30;68.80;;;;;;5019062;28;20077;-41
2021/04/25 01:11:16;;;;;;;8.32;2.85;;;6.30;68.60;;;;;;5039202;28;20175;-41
2021/04/25 01:13:42;;;;;;;9.18;2.97;;;6.30;68.70;;;;;;5035991;28;20041;-42
2021/04/25 01:16:09;;;;;;;6.80;2.17;;;6.30;68.40;;;;;;5047282;28;20076;-41
2021/04/25 01:18:35;;;;;;;8.07;3.17;;;6.20;68.40;;;;;;5043284;28;20047;-43
2021/04/25 01:21:06;;;;;;;7.70;2.72;;;6.20;68.40;;;;;;5047367;28;20131;-40
2021/04/25 01:23:32;;;;;;;8.25;2.38;;;6.30;68.50;;;;;;5044739;28;20481;-41
2021/04/25 01:26:00;;;;;;;7.18;2.78;;;6.30;68.30;;;;;;5028850;28;20049;-44
2021/04/25 01:28:28;;;;;;;6.28;2.42;;;6.20;68.20;;;;;;5041829;28;20609;-40
2021/04/25 01:30:55;;;;;;;6.80;2.55;;;6.20;68.00;;;;;;5034745;28;20049;-43
2021/04/25 01:33:25;;;;;;;12.18;2.15;;;6.20;68.40;;;;;;5035326;28;20052;-41
2021/04/25 01:35:52;;;;;;;9.05;2.35;;;6.20;68.30;;;;;;5015862;28;20057;-41
2021/04/25 01:38:19;;;;;;;7.35;2.45;;;6.20;68.40;;;;;;5032138;28;20203;-40
2021/04/25 01:40:45;;;;;;;7.93;2.50;;;6.20;68.50;;;;;;5030010;28;20049;-41
2021/04/25 01:43:12;;;;;;;7.80;2.40;;;6.10;68.60;;;;;;5032057;28;20091;-41
2021/04/25 01:45:39;;;;;;;9.50;2.00;;;6.10;68.90;;;;;;5043707;28;20171;-40
2021/04/25 01:48:06;;;;;;;8.98;2.45;;;6.10;68.60;;;;;;5038150;28;20047;-39
2021/04/25 01:50:33;;;;;;;6.55;2.40;;;6.20;68.40;;;;;;5050350;28;20045;-42
2021/04/25 01:53:00;;;;;;;12.05;3.13;;;6.10;68.50;;;;;;5048369;28;20051;-42
2021/04/25 01:55:28;;;;;;;10.32;3.08;;;6.20;68.30;;;;;;5044252;28;20049;-41
2021/04/25 01:57:54;;;;;;;10.35;3.42;;;6.10;68.30;;;;;;5045341;28;20528;-41
2021/04/25 02:00:29;;;;;;;6.78;2.95;;;6.10;68.40;;;;;;5045269;28;20059;-40
2021/04/25 02:02:56;;;;;;;9.30;3.13;;;6.10;68.60;;;;;;5031404;28;20048;-40
2021/04/25 02:05:23;;;;;;;9.48;2.38;;;6.10;68.00;;;;;;5031080;28;20053;-40
2021/04/25 02:07:51;;;;;;;8.57;2.70;;;6.10;68.30;;;;;;5036915;28;20084;-41
2021/04/25 02:10:19;;;;;;;7.57;2.60;;;6.10;68.20;;;;;;5046822;28;20128;-41
2021/04/25 02:12:45;;;;;;;7.78;2.95;;;6.10;68.00;;;;;;5045099;28;20045;-40
2021/04/25 02:15:12;;;;;;;8.32;2.78;;;6.10;68.00;;;;;;5032754;28;20050;-43
2021/04/25 02:17:42;;;;;;;10.05;2.72;;;6.00;68.60;;;;;;5033928;28;20128;-41
2021/04/25 02:20:10;;;;;;;8.88;2.97;;;6.10;68.60;;;;;;5043356;28;20055;-41
2021/04/25 02:22:37;;;;;;;9.05;2.72;;;6.10;68.90;;;;;;5031771;28;20164;-41
2021/04/25 02:25:05;;;;;;;11.35;3.13;;;6.10;68.40;;;;;;5026478;28;20068;-41
2021/04/25 02:27:33;;;;;;;9.20;2.70;;;6.10;68.90;;;;;;5039382;28;20076;-41
2021/04/25 02:29:59;;;;;;;11.32;3.38;;;6.10;68.70;;;;;;5036947;28;20436;-42
2021/04/25 02:32:25;;;;;;;8.75;3.05;;;6.10;68.90;;;;;;5037022;28;20053;-41
2021/04/25 02:34:51;;;;;;;9.40;3.30;;;6.10;69.20;;;;;;5040494;28;20735;-41
2021/04/25 02:37:18;;;;;;;11.45;2.90;;;6.10;69.10;;;;;;5044662;28;20048;-41
2021/04/25 02:39:44;;;;;;;10.40;3.00;;;6.10;69.30;;;;;;5034130;28;20401;-41
2021/04/25 02:42:11;;;;;;;11.85;2.80;;;6.10;70.00;;;;;;5040445;28;20125;-40
2021/04/25 02:44:37;;;;;;;11.10;3.00;;;6.10;69.30;;;;;;5041831;28;20549;-41
2021/04/25 02:47:03;;;;;;;11.25;3.13;;;6.10;70.00;;;;;;5035960;28;20045;-41
2021/04/25 02:49:29;;;;;;;7.60;2.92;;;6.10;69.60;;;;;;5032763;28;20405;-41
2021/04/25 02:51:56;;;;;;;9.25;2.80;;;6.10;70.00;;;;;;5037638;28;20044;-40
2021/04/25 02:54:22;;;;;;;9.75;2.67;;;6.10;70.00;;;;;;5048727;28;20075;-42
2021/04/25 02:56:48;;;;;;;7.95;2.28;;;6.10;69.70;;;;;;5045382;28;20046;-41
2021/04/25 02:59:15;;;;;;;14.20;2.67;;;6.10;69.50;;;;;;5032120;28;20087;-40
2021/04/25 03:01:41;;;;;;;8.55;2.60;;;6.10;70.00;;;;;;5032039;28;20049;-40
2021/04/25 03:04:09;;;;;;;8.40;2.72;;;6.00;69.50;;;;;;5042541;28;20421;-40
2021/04/25 03:06:36;;;;;;;9.18;2.30;;;6.10;69.60;;;;;;5050319;28;20087;-41
2021/04/25 03:09:03;;;;;;;7.07;2.28;;;6.10;69.40;;;;;;5039546;28;20069;-42
2021/04/25 03:11:29;;;;;;;7.28;2.70;;;6.00;69.30;;;;;;5047276;28;20064;-41
2021/04/25 03:13:55;;;;;;;7.00;2.30;;;6.10;69.30;;;;;;5043158;28;20062;-42
2021/04/25 03:16:22;;;;;;;11.05;2.85;;;6.10;69.60;;;;;;5046829;28;20048;-42
2021/04/25 03:18:48;;;;;;;7.60;2.17;;;6.10;69.50;;;;;;5049510;28;20053;-42
2021/04/25 03:21:15;;;;;;;4.65;2.20;;;6.10;69.50;;;;;;5030573;28;20049;-41
2021/04/25 03:23:41;;;;;;;9.80;2.10;;;6.10;69.50;;;;;;5031871;28;20144;-43
2021/04/25 03:26:07;;;;;;;9.18;2.95;;;6.10;70.00;;;;;;5031551;28;20057;-41
2021/04/25 03:28:34;;;;;;;6.88;2.40;;;6.00;69.90;;;;;;5031689;28;20056;-41
2021/04/25 03:31:00;;;;;;;5.82;2.00;;;6.00;70.00;;;;;;5034781;28;20065;-40
2021/04/25 03:33:29;;;;;;;10.25;3.15;;;6.00;70.20;;;;;;5039821;28;20045;-43
2021/04/25 03:35:55;;;;;;;9.45;2.47;;;6.00;70.10;;;;;;5047727;28;20060;-40
2021/04/25 03:38:21;;;;;;;6.53;2.38;;;6.10;70.40;;;;;;5052014;28;20049;-39
2021/04/25 03:40:48;;;;;;;8.60;2.22;;;6.00;70.00;;;;;;5016547;28;20401;-40
2021/04/25 03:43:14;;;;;;;8.18;2.38;;;6.10;70.40;;;;;;5030709;28;20045;-41
2021/04/25 03:45:40;;;;;;;8.45;2.50;;;6.10;70.60;;;;;;5043766;28;20061;-41
2021/04/25 03:48:07;;;;;;;6.78;2.60;;;6.10;70.60;;;;;;5037619;28;20395;-41
2021/04/25 03:50:33;;;;;;;9.85;2.42;;;6.00;70.50;;;;;;5047200;28;20060;-41
2021/04/25 03:52:59;;;;;;;6.22;2.05;;;6.00;70.60;;;;;;5039287;28;20151;-40
2021/04/25 03:55:26;;;;;;;8.20;2.30;;;6.00;70.40;;;;;;5031471;28;20049;-42
2021/04/25 03:57:52;;;;;;;7.95;1.60;;;6.00;70.00;;;;;;5034155;28;20057;-41
2021/04/25 04:00:19;;;;;;;11.20;2.03;;;6.00;69.80;;;;;;5034197;28;20140;-42
2021/04/25 04:02:46;;;;;;;7.85;1.83;;;6.00;70.00;;;;;;5051854;28;20126;-40
2021/04/25 04:05:13;;;;;;;8.38;1.83;;;6.00;70.00;;;;;;5045336;28;20052;-41
2021/04/25 04:07:41;;;;;;;9.98;1.77;;;6.00;70.20;;;;;;5032327;28;20215;-40
2021/04/25 04:10:09;;;;;;;8.45;2.13;;;6.00;70.10;;;;;;5024430;28;20757;-41
2021/04/25 04:12:35;;;;;;;11.15;2.40;;;5.90;70.30;;;;;;5030236;28;20152;-41
2021/04/25 04:15:03;;;;;;;11.25;2.25;;;6.00;70.30;;;;;;5042234;28;20048;-43
2021/04/25 04:17:29;;;;;;;10.75;2.10;;;5.90;70.70;;;;;;5048661;28;20460;-41
2021/04/25 04:19:55;;;;;;;9.30;2.13;;;6.00;70.60;;;;;;5038261;28;20068;-41
2021/04/25 04:22:21;;;;;;;11.15;2.85;;;6.00;70.20;;;;;;5036366;28;20053;-40
2021/04/25 04:24:47;;;;;;;10.10;2.47;;;6.00;70.60;;;;;;5037363;28;20053;-42
2021/04/25 04:27:13;;;;;;;9.30;2.00;;;6.00;70.50;;;;;;5046522;28;20060;-41
2021/04/25 04:29:40;;;;;;;8.55;1.98;;;6.00;70.80;;;;;;5059091;28;20041;-43
2021/04/25 04:32:08;;;;;;;9.10;2.30;;;6.00;70.60;;;;;;5039429;28;20053;-40
2021/04/25 04:34:37;;;;;;;8.80;2.28;;;6.00;71.00;;;;;;5035523;28;20048;-40
2021/04/25 04:37:04;;;;;;;9.52;2.00;;;6.00;70.70;;;;;;5046619;28;20158;-40
2021/04/25 04:39:30;;;;;;;11.23;1.98;;;6.00;70.30;;;;;;5046533;28;20455;-41
2021/04/25 04:41:56;;;;;;;8.60;2.00;;;6.00;70.20;;;;;;5046567;28;20045;-40
2021/04/25 04:44:23;;;;;;;8.40;1.75;;;6.00;70.20;;;;;;5043930;28;20076;-41
2021/04/25 04:46:49;;;;;;;15.77;2.20;;;6.10;70.30;;;;;;5043504;28;20037;-42
2021/04/25 04:49:15;;;;;;;9.32;1.80;;;6.00;70.10;;;;;;5029488;28;20120;-41
2021/04/25 04:51:42;;;;;;;9.68;1.88;;;6.00;70.30;;;;;;5033795;28;20049;-40
2021/04/25 04:54:08;;;;;;;7.95;2.08;;;6.00;70.30;;;;;;5030504;28;20203;-40
2021/04/25 04:56:34;;;;;;;11.27;2.03;;;6.00;70.40;;;;;;5040860;28;20057;-41
2021/04/25 04:59:01;;;;;;;9.82;1.95;;;6.10;70.40;;;;;;5030262;28;20050;-41
2021/04/25 05:01:27;;;;;;;10.15;2.03;;;6.10;70.30;;;;;;5032381;28;20061;-41
2021/04/25 05:03:53;;;;;;;6.18;1.85;;;6.10;70.70;;;;;;5029046;28;20053;-41
2021/04/25 05:06:19;;;;;;;10.05;1.90;;;6.20;70.60;;;;;;5029707;28;20058;-40
2021/04/25 05:08:45;;;;;;;9.93;2.75;;;6.10;70.90;;;;;;5031379;28;20528;-41
2021/04/25 05:11:13;;;;;;;12.13;2.55;;;6.10;70.40;;;;;;5029092;28;20107;-40
2021/04/25 05:13:40;;;;;;;7.53;2.25;;;6.20;70.60;;;;;;5029096;28;20462;-40
2021/04/25 05:16:06;;;;;;;8.00;1.77;;;6.20;70.40;;;;;;5034131;28;20128;-41
2021/04/25 05:18:32;;;;;;;9.93;1.90;;;6.20;70.30;;;;;;5030141;28;20053;-41
2021/04/25 05:20:59;;;;;;;8.20;2.08;;;6.20;70.60;;;;;;5047120;28;20138;-42
2021/04/25 05:23:25;;;;;;;8.05;2.30;;;6.30;70.80;;;;;;5042011;28;20059;-41
2021/04/25 05:25:51;;;;;;;7.95;1.92;;;6.30;70.20;;;;;;5029521;28;20054;-41
2021/04/25 05:28:17;;;;;;;10.30;2.30;;;6.30;70.20;;;;;;5036145;28;20045;-42
2021/04/25 05:30:43;;;;;;;14.20;2.92;;;6.30;70.50;;;;;;5031692;28;20142;-41
2021/04/25 05:33:12;;;;;;;6.50;1.67;;;6.30;70.10;;;;;;5050048;28;20048;-41
2021/04/25 05:35:38;;;;;;;10.20;2.30;;;6.30;70.20;;;;;;5038024;28;20056;-41
2021/04/25 05:38:05;;;;;;;10.15;2.00;;;6.30;70.10;;;;;;5045138;28;20102;-43
2021/04/25 05:40:31;;;;;;;13.23;2.05;;;6.40;70.10;;;;;;5041266;28;20053;-41
2021/04/25 05:42:57;;;;;;;7.97;1.90;;;6.40;70.20;;;;;;5045987;28;20047;-41
2021/04/25 05:45:24;;;;;;;9.52;1.95;;;6.50;70.10;;;;;;5033211;28;20046;-42
2021/04/25 05:47:53;;;;;;;9.20;1.75;;;6.50;70.40;;;;;;5047416;28;20068;-41
2021/04/25 05:50:20;;;;;;;10.95;2.63;;;6.50;70.10;;;;;;5050320;28;20036;-41
2021/04/25 05:52:46;;;;;;;7.32;1.98;;;6.60;70.50;;;;;;5047258;28;20049;-42
2021/04/25 05:55:14;;;;;;;10.70;2.17;;;6.60;70.50;;;;;;5033923;28;20777;-42
2021/04/25 05:57:48;;;;;;;8.95;2.67;;;6.70;70.80;;;;;;5044009;28;20052;-42
2021/04/25 06:00:26;;;;;;;8.82;2.15;;;6.80;70.00;;;;;;5043358;28;20049;-41
2021/04/25 06:02:53;;;;;;;10.38;2.13;;;6.90;69.80;;;;;;5038588;28;20497;-42
2021/04/25 06:05:22;;;;;;;11.60;2.40;;;7.00;69.40;;;;;;5010048;28;20049;-43
2021/04/25 06:07:51;;;;;;;11.48;2.50;;;7.00;68.90;;;;;;5028030;28;20057;-42
2021/04/25 06:10:20;;;;;;;9.95;1.90;;;7.00;68.90;;;;;;5036371;28;20049;-42
2021/04/25 06:12:50;;;;;;;10.80;2.15;;;7.10;68.90;;;;;;5023326;28;20151;-41
2021/04/25 06:15:18;;;;;;;6.75;2.25;;;7.10;69.00;;;;;;5040079;28;20045;-41
2021/04/25 06:17:45;;;;;;;10.32;2.30;;;7.20;69.10;;;;;;5025504;28;20095;-40
2021/04/25 06:20:13;;;;;;;6.80;2.00;;;7.10;69.30;;;;;;5045697;28;20057;-41
2021/04/25 06:22:40;;;;;;;10.82;2.30;;;7.20;68.60;;;;;;5033596;28;20132;-42
2021/04/25 06:25:08;;;;;;;6.97;2.17;;;7.20;68.50;;;;;;5046684;28;20041;-41
2021/04/25 06:27:34;;;;;;;7.25;1.88;;;7.20;68.70;;;;;;5041271;28;20052;-42
2021/04/25 06:30:09;;;;;;;15.48;2.47;;;7.20;68.60;;;;;;5046272;28;20053;-41
2021/04/25 06:32:42;;;;;;;10.75;2.08;;;7.30;68.50;;;;;;5034750;28;20048;-41
2021/04/25 06:35:11;;;;;;;10.95;2.20;;;7.30;68.70;;;;;;5042892;28;20045;-43
2021/04/25 06:37:38;;;;;;;41.45;27.52;;;7.40;68.50;;;;;;5044314;28;20057;-40
2021/04/25 06:40:04;;;;;;;88.93;63.65;;;7.30;68.80;;;;;;5010895;28;20136;-41
2021/04/25 06:42:34;;;;;;;26.27;11.68;;;7.50;69.60;;;;;;5042260;28;20049;-43
2021/04/25 06:45:01;;;;;;;10.40;4.00;;;7.50;68.60;;;;;;5039929;28;20048;-42
2021/04/25 06:47:30;;;;;;;11.40;2.95;;;7.40;68.50;;;;;;5013345;28;20095;-41
2021/04/25 06:49:59;;;;;;;16.92;8.70;;;7.40;68.30;;;;;;5040324;28;20052;-41
2021/04/25 06:52:26;;;;;;;19.40;10.48;;;7.40;68.10;;;;;;5039648;28;20060;-41
2021/04/25 06:54:52;;;;;;;332.10;268.13;;;7.50;68.00;;;;;;5033469;28;20087;-43
2021/04/25 06:57:18;;;;;;;17.10;4.03;;;7.70;69.40;;;;;;5036724;28;20045;-40
2021/04/25 06:59:44;;;;;;;12.85;3.80;;;7.70;67.30;;;;;;5031148;28;20103;-42
2021/04/25 07:02:10;;;;;;;24.48;16.05;;;7.70;67.30;;;;;;5012114;28;20050;-39
2021/04/25 07:04:39;;;;;;;16.50;7.65;;;7.80;66.80;;;;;;5035268;28;20042;-40
2021/04/25 07:07:07;;;;;;;11.73;3.40;;;7.70;66.40;;;;;;5041272;28;20057;-40
2021/04/25 07:09:33;;;;;;;13.65;3.30;;;7.70;66.60;;;;;;5034541;28;20049;-40
2021/04/25 07:11:59;;;;;;;9.63;3.58;;;7.60;67.20;;;;;;5034707;28;20529;-39
2021/04/25 07:14:26;;;;;;;12.32;2.83;;;7.70;66.90;;;;;;5038354;28;20047;-40
2021/04/25 07:16:52;;;;;;;11.07;3.10;;;7.80;66.90;;;;;;5031906;28;20053;-40
2021/04/25 07:19:19;;;;;;;11.60;3.60;;;7.90;66.70;;;;;;5031228;28;20060;-42
2021/04/25 07:21:46;;;;;;;12.07;3.33;;;8.00;66.70;;;;;;5030785;28;20148;-39
2021/04/25 07:24:17;;;;;;;59.65;37.28;;;8.00;66.60;;;;;;5038503;28;20100;-37
2021/04/25 07:26:43;;;;;;;44.40;32.35;;;8.30;66.30;;;;;;5036066;28;20500;-37
2021/04/25 07:29:13;;;;;;;16.05;8.73;;;8.50;66.30;;;;;;5039592;28;20044;-37
2021/04/25 07:31:39;;;;;;;65.95;49.78;;;8.70;65.10;;;;;;5035151;28;20049;-37
2021/04/25 07:34:05;;;;;;;10.90;4.53;;;8.60;64.50;;;;;;5035252;28;20513;-37
2021/04/25 07:36:32;;;;;;;8.73;4.30;;;8.70;64.00;;;;;;5034176;28;20048;-39
2021/04/25 07:39:01;;;;;;;12.30;2.38;;;8.80;63.80;;;;;;5046646;28;20060;-38
2021/04/25 07:41:28;;;;;;;18.25;9.60;;;8.80;63.70;;;;;;5047522;28;20045;-39
2021/04/25 07:43:54;;;;;;;12.80;5.03;;;8.90;62.20;;;;;;5037157;28;20075;-39
2021/04/25 07:46:23;;;;;;;11.77;3.92;;;8.90;61.80;;;;;;5045175;28;20095;-39
2021/04/25 07:48:51;;;;;;;33.35;21.92;;;9.00;61.20;;;;;;5031234;28;20513;-37
2021/04/25 07:51:22;;;;;;;38.83;27.17;;;9.20;62.00;;;;;;5046037;28;20820;-37
2021/04/25 07:53:53;;;;;;;25.15;17.42;;;9.20;62.20;;;;;;5048179;28;20045;-39
2021/04/25 07:56:19;;;;;;;10.38;2.28;;;9.20;61.40;;;;;;5027403;28;20080;-38
2021/04/25 07:58:45;;;;;;;11.75;3.28;;;9.00;61.50;;;;;;5047175;28;20073;-38
2021/04/25 08:01:19;;;;;;;10.25;3.90;;;8.90;60.80;;;;;;5039964;28;20061;-38
2021/04/25 08:03:52;;;;;;;11.25;4.47;;;8.90;61.00;;;;;;5027242;28;20068;-36
2021/04/25 08:06:20;;;;;;;12.07;3.85;;;8.90;60.70;;;;;;5047570;28;20131;-37
2021/04/25 08:08:51;;;;;;;21.35;14.32;;;9.00;61.10;;;;;;5047586;28;20513;-37
2021/04/25 08:11:18;;;;;;;13.10;5.43;;;9.10;60.90;;;;;;5047621;28;20045;-37
2021/04/25 08:13:44;;;;;;;28.30;14.85;;;9.30;60.00;;;;;;5043467;28;20052;-37
2021/04/25 08:16:10;;;;;;;8.55;2.83;;;9.20;60.00;;;;;;5040330;28;21063;-38
2021/04/25 08:18:37;;;;;;;15.65;2.47;;;9.30;59.40;;;;;;5043128;28;20080;-38
2021/04/25 08:21:03;;;;;;;13.80;6.68;;;9.00;59.60;;;;;;5047672;28;20530;-38
2021/04/25 08:23:29;;;;;;;12.52;4.13;;;9.10;60.00;;;;;;5055094;28;20041;-36
2021/04/25 08:25:55;;;;;;;7.20;3.15;;;9.00;59.10;;;;;;5036568;28;20053;-36
2021/04/25 08:28:27;;;;;;;6.60;1.58;;;9.00;59.50;;;;;;5036384;28;20129;-37
2021/04/25 08:30:54;;;;;;;11.02;3.22;;;9.00;59.50;;;;;;5043856;28;20188;-37
2021/04/25 08:33:20;;;;;;;8.82;2.60;;;9.20;59.60;;;;;;5036166;28;20132;-36
2021/04/25 08:35:46;;;;;;;8.88;4.93;;;9.20;59.20;;;;;;5028139;28;20072;-36
2021/04/25 08:38:12;;;;;;;9.88;2.97;;;9.30;59.30;;;;;;5035897;28;20078;-36
2021/04/25 08:40:39;;;;;;;12.25;3.72;;;9.40;58.90;;;;;;5042872;28;20075;-36
2021/04/25 08:43:05;;;;;;;12.32;3.30;;;9.50;58.20;;;;;;5029102;28;20783;-36
2021/04/25 08:45:31;;;;;;;8.07;2.22;;;9.60;57.90;;;;;;5021552;28;20056;-36
2021/04/25 08:48:03;;;;;;;18.23;8.90;;;9.50;57.40;;;;;;5024662;28;20049;-36
2021/04/25 08:50:31;;;;;;;42.90;29.60;;;9.70;57.90;;;;;;5027629;28;20073;-35
2021/04/25 08:53:01;;;;;;;36.85;23.15;;;9.70;58.10;;;;;;5023281;28;20148;-37
2021/04/25 08:55:28;;;;;;;12.95;4.30;;;9.60;57.90;;;;;;5027870;28;20092;-37
2021/04/25 08:57:54;;;;;;;39.58;23.67;;;9.50;58.60;;;;;;5032925;28;20488;-37
2021/04/25 09:00:21;;;;;;;11.43;2.75;;;9.50;58.70;;;;;;5015232;28;20077;-37
2021/04/25 09:02:50;;;;;;;18.30;10.10;;;9.60;58.40;;;;;;5025503;28;20099;-37
2021/04/25 09:05:17;;;;;;;13.73;6.93;;;9.50;58.20;;;;;;5027699;28;20145;-39
2021/04/25 09:07:57;;;;;;;17.17;8.13;;;9.50;58.90;;;;;;5031021;28;20041;-39
2021/04/25 09:10:43;;;;;;;14.15;4.80;;;9.30;58.40;;;;;;5009394;28;20057;-37
2021/04/25 09:13:21;;;;;;;8.82;2.60;;;9.40;58.60;;;;;;5027878;28;20065;-37
2021/04/25 09:15:48;;;;;;;7.00;2.10;;;9.40;58.60;;;;;;5025590;28;20048;-37
2021/04/25 09:18:39;;;;;;;13.00;3.63;;;9.40;59.30;;;;;;5027832;28;20041;-37
2021/04/25 09:21:12;;;;;;;11.55;4.38;;;9.30;58.90;;;;;;5026259;28;20119;-36
2021/04/25 09:23:40;;;;;;;58.28;42.17;;;9.30;59.40;;;;;;5026588;28;20277;-37
2021/04/25 09:26:07;;;;;;;17.52;11.35;;;9.30;59.10;;;;;;5027222;28;20152;-36
2021/04/25 09:28:36;;;;;;;10.70;5.53;;;9.40;59.50;;;;;;5026981;28;20053;-36
2021/04/25 09:31:09;;;;;;;13.98;6.80;;;9.50;59.50;;;;;;5028479;28;20437;-37
2021/04/25 09:33:55;;;;;;;27.13;17.42;;;9.60;58.90;;;;;;5026028;28;20052;-37
2021/04/25 09:36:23;;;;;;;15.15;6.93;;;9.70;59.40;;;;;;5022430;28;20053;-37
2021/04/25 09:38:54;;;;;;;13.95;7.38;;;9.80;59.20;;;;;;5012818;28;20046;-36
2021/04/25 09:41:32;;;;;;;10.27;4.47;;;9.70;58.60;;;;;;5011457;28;20061;-37
2021/04/25 09:43:59;;;;;;;11.57;4.00;;;9.70;58.60;;;;;;5007279;28;20127;-38
2021/04/25 09:46:54;;;;;;;9.63;3.65;;;9.80;58.70;;;;;;5041995;28;20551;-37
2021/04/25 09:49:44;;;;;;;13.65;5.57;;;9.80;58.00;;;;;;5045129;28;20827;-37
2021/04/25 09:52:13;;;;;;;8.63;2.35;;;10.00;58.90;;;;;;5039234;28;20057;-37
2021/04/25 09:54:45;;;;;;;9.65;3.58;;;10.00;58.90;;;;;;5042333;28;20059;-36
2021/04/25 09:57:34;;;;;;;10.65;2.42;;;9.90;58.90;;;;;;5043771;28;20169;-36
2021/04/25 10:00:03;;;;;;;10.07;2.30;;;9.90;58.40;;;;;;5030265;28;20045;-36
2021/04/25 10:02:32;;;;;;;9.45;2.35;;;9.80;59.10;;;;;;5041175;28;20572;-36
2021/04/25 10:05:08;;;;;;;7.75;2.50;;;9.90;59.20;;;;;;5032248;28;20049;-36
2021/04/25 10:07:35;;;;;;;12.00;3.08;;;9.90;59.20;;;;;;5039215;28;20049;-36
2021/04/25 10:10:15;;;;;;;5.70;1.65;;;10.00;58.90;;;;;;5044706;28;20049;-36
2021/04/25 10:12:45;;;;;;;7.38;2.40;;;10.10;59.00;;;;;;5029385;28;20049;-36
2021/04/25 10:15:13;;;;;;;6.90;2.03;;;10.10;58.70;;;;;;5027024;28;20052;-36
2021/04/25 10:17:50;;;;;;;9.02;2.42;;;10.10;58.80;;;;;;5036132;28;20045;-36
2021/04/25 10:20:20;;;;;;;10.85;2.47;;;10.10;57.80;;;;;;5020572;28;20119;-37
2021/04/25 10:22:48;;;;;;;45.22;33.42;;;10.20;57.60;;;;;;5039756;28;20049;-36
2021/04/25 10:25:31;;;;;;;35.33;22.00;;;10.30;57.90;;;;;;5034134;28;20037;-36
2021/04/25 10:28:05;;;;;;;30.70;15.45;;;10.40;58.20;;;;;;5020516;28;20714;-36
2021/04/25 10:30:40;;;;;;;16.38;10.35;;;10.40;57.90;;;;;;5037897;28;20046;-36
2021/04/25 10:33:08;;;;;;;11.73;5.25;;;10.50;56.90;;;;;;5040290;28;20132;-36
2021/04/25 10:35:38;;;;;;;16.80;7.55;;;10.60;57.10;;;;;;5036181;28;20069;-36
2021/04/25 10:38:07;;;;;;;113.32;88.80;;;10.70;56.50;;;;;;5035218;28;20045;-36
2021/04/25 10:40:44;;;;;;;83.57;64.15;;;10.90;57.10;;;;;;5036095;28;20056;-35
2021/04/25 10:43:13;;;;;;;12.20;4.47;;;10.90;56.30;;;;;;5031185;28;20498;-37
2021/04/25 10:45:59;;;;;;;19.75;9.82;;;10.90;55.80;;;;;;5032573;28;20140;-41
2021/04/25 10:48:35;;;;;;;8.68;2.10;;;10.90;55.40;;;;;;5035685;28;20491;-41
2021/04/25 10:51:05;;;;;;;12.23;4.00;;;10.90;54.70;;;;;;5036376;28;20497;-41
2021/04/25 10:53:38;;;;;;;20.80;12.15;;;11.00;56.20;;;;;;5043638;28;20052;-41
2021/04/25 10:56:13;;;;;;;10.88;3.67;;;11.00;55.80;;;;;;5045861;28;20048;-41
2021/04/25 10:58:48;;;;;;;19.00;13.27;;;10.90;55.10;;;;;;5031204;28;20045;-40
2021/04/25 11:01:37;;;;;;;13.30;4.72;;;11.00;56.00;;;;;;5044085;28;20057;-41
2021/04/25 11:04:06;;;;;;;12.82;4.68;;;11.10;55.20;;;;;;5046228;28;20045;-41
2021/04/25 11:06:33;;;;;;;8.15;3.45;;;11.30;55.40;;;;;;5048000;28;20118;-40
2021/04/25 11:09:01;;;;;;;9.23;3.72;;;11.60;54.60;;;;;;5048746;28;20045;-41
2021/04/25 11:11:40;;;;;;;10.50;5.07;;;11.80;53.60;;;;;;5047288;28;20688;-41
2021/04/25 11:14:08;;;;;;;9.23;2.55;;;12.20;48.90;;;;;;5045470;28;20107;-42
2021/04/25 11:16:35;;;;;;;8.50;2.70;;;12.20;50.90;;;;;;5029787;28;20513;-41
2021/04/25 11:19:27;;;;;;;7.30;3.17;;;12.30;50.70;;;;;;5051650;28;20074;-41
2021/04/25 11:21:57;;;;;;;10.48;4.40;;;12.70;51.30;;;;;;5042960;28;20413;-40
2021/04/25 11:24:31;;;;;;;14.00;2.85;;;12.90;51.00;;;;;;5048682;28;20115;-41
2021/04/25 11:27:04;;;;;;;11.00;3.00;;;13.10;51.10;;;;;;5028402;28;20139;-43
2021/04/25 11:29:30;;;;;;;7.22;2.45;;;13.20;50.60;;;;;;5037679;28;20156;-45
2021/04/25 11:32:01;;;;;;;7.20;2.97;;;13.40;50.70;;;;;;5041096;28;20513;-42
2021/04/25 11:37:04;;;;;;;7.00;2.60;;;14.10;49.40;;;;;;5040849;28;20049;-43
2021/04/25 11:39:53;;;;;;;10.65;2.60;;;14.00;47.20;;;;;;5045866;28;20105;-42
2021/04/25 11:42:27;;;;;;;9.82;3.92;;;14.00;45.20;;;;;;5040359;28;20049;-42
2021/04/25 11:44:54;;;;;;;7.75;1.83;;;13.50;45.80;;;;;;5028090;28;20068;-42
2021/04/25 11:47:21;;;;;;;7.72;2.75;;;13.70;47.80;;;;;;5039999;28;20103;-43
2021/04/25 11:49:49;;;;;;;8.07;2.80;;;14.80;46.70;;;;;;5053599;28;20037;-42
2021/04/25 11:52:20;;;;;;;10.52;2.97;;;15.80;43.90;;;;;;5047164;28;20148;-42
2021/04/25 11:54:50;;;;;;;6.70;2.53;;;16.40;42.00;;;;;;5045004;28;20136;-44
2021/04/25 11:57:20;;;;;;;6.40;1.90;;;16.60;42.60;;;;;;5044756;28;20076;-43
2021/04/25 12:00:09;;;;;;;9.00;2.17;;;16.00;38.40;;;;;;5045710;28;20057;-43
2021/04/25 12:02:38;;;;;;;6.57;1.83;;;15.60;39.50;;;;;;5045295;28;20158;-44
2021/04/25 12:05:10;;;;;;;7.43;1.88;;;16.00;41.60;;;;;;5040097;28;20063;-42
2021/04/25 12:07:39;;;;;;;6.28;2.10;;;16.50;38.90;;;;;;5043925;28;20048;-41
2021/04/25 12:10:21;;;;;;;8.98;1.90;;;17.00;38.70;;;;;;5042961;28;20051;-42
2021/04/25 12:13:14;;;;;;;5.22;1.33;;;17.80;39.10;;;;;;5043574;28;20057;-42
2021/04/25 12:16:00;;;;;;;10.32;1.75;;;17.50;35.90;;;;;;5042741;28;20082;-41
2021/04/25 12:18:41;;;;;;;4.85;1.48;;;17.40;38.20;;;;;;5046075;28;20075;-42
2021/04/25 12:21:13;;;;;;;6.75;1.60;;;18.00;37.20;;;;;;5049740;28;20473;-42
2021/04/25 12:23:53;;;;;;;5.93;1.80;;;18.60;37.00;;;;;;5044261;28;20071;-41
2021/04/25 12:26:22;;;;;;;5.45;1.67;;;18.40;36.50;;;;;;5026857;28;20336;-42
2021/04/25 12:28:58;;;;;;;7.85;1.90;;;17.70;36.00;;;;;;5027218;28;20052;-41
2021/04/25 12:31:27;;;;;;;9.32;1.80;;;17.20;37.50;;;;;;5027458;28;20153;-42
2021/04/25 12:33:56;;;;;;;8.80;1.77;;;16.40;38.80;;;;;;5026519;28;20064;-41
2021/04/25 12:36:25;;;;;;;7.72;1.60;;;16.20;38.30;;;;;;5040169;28;20068;-41
2021/04/25 12:39:04;;;;;;;7.28;2.58;;;15.90;39.20;;;;;;5039146;28;20053;-41
2021/04/25 12:41:47;;;;;;;6.07;1.85;;;15.40;39.40;;;;;;5032854;28;20053;-42
2021/04/25 12:44:17;;;;;;;7.68;2.50;;;15.50;38.40;;;;;;5030708;28;20401;-42
2021/04/25 12:46:57;;;;;;;5.40;1.60;;;16.90;37.80;;;;;;5024622;28;20550;-43
2021/04/25 12:49:37;;;;;;;4.75;1.52;;;16.30;36.70;;;;;;5031301;28;20110;-41
2021/04/25 12:52:05;;;;;;;17.08;9.20;;;15.80;37.50;;;;;;5036585;28;20044;-41
2021/04/25 12:54:43;;;;;;;14.70;9.23;;;15.60;39.40;;;;;;5029705;28;20065;-39
2021/04/25 12:57:29;;;;;;;8.55;3.30;;;15.20;38.90;;;;;;5026541;28;20064;-39
2021/04/25 12:59:56;;;;;;;13.27;6.95;;;15.30;41.10;;;;;;5035515;28;20128;-39
2021/04/25 13:02:32;;;;;;;29.08;21.23;;;16.00;39.80;;;;;;5042613;28;20129;-39